Almond, WI

10:16 PM CST on March 01, 2015 (GMT -0600)
Alexander Field South Wood County | Change Station
CLOSE
Current Station
Airport
Location: Wisconsin Rapids,
Elevation: 1020 ft
Nearby Weather Stations

Elev 1020 ft 44.36 °N, 89.84 °W | Updated 22 minutes ago

Partly Cloudy
Partly Cloudy
16 °F
Feels Like 7 °F
N
6
Wind Variable Wind from West

Today
High -- | Low -- °F
--% Chance of Precip.
Yesterday
High -- | Low -- °F
Precip. -- in
6:34 AM 5:45 PM
Waxing Gibbous, 89% visible
Pressure 30.33 in
Visibility 10.0 miles
Clouds Scattered Clouds 4500 ft
Windchill 7 °F
Dew Point 5 °F
Humidity 62%
Rainfall 0.00 in
Snow Depth Not available.
UV 0 out of 12
Pollen .40 out of 12
Air Quality Not available.
Flu Activity Not available.
METAR KISW 020354Z AUTO 26005KT 10SM SCT045 M09/M15 A3026 RMK AO2 SLP269 T10891150

More Conditions Fewer Conditions

Pressure 30.33 in
Visibility 10.0 miles
Clouds Scattered Clouds 4500 ft
Windchill 7 °F
Dew Point 5 °F
Humidity 62%
Rainfall 0.00 in
Snow Depth Not available.
UV 0 out of 12
Pollen .40 out of 12
Air Quality Not available.
Flu Activity Not available.
METAR KISW 020354Z AUTO 26005KT 10SM SCT045 M09/M15 A3026 RMK AO2 SLP269 T10891150

More Conditions Fewer Conditions

10-Day Weather Forecast

Almanac

Astronomy

Mar. 01, 2015 Rise Set
Actual Time
Civil Twilight
Nautical Twilight
Astronomical Twilight
Moon
Length of Visible Light
Length of Day
Tomorrow will be .
, % of the Moon is Illuminated

Today's Extremes

State Highs State Lows

Community

WunderPhotos

Upload Photos

1,801,722 photos uploaded!

WunderBlogs® & News

Nearby

Air Quality

  Air Quality AQ Index Pollutant
Not available.

Snow Depth

Station Depth Elevation

Earthquake Activity

City Distance Mag. Time & Date
Minimum magnitude displayed is 2.5.

Coastal Water Temperatures

Place Temperature

Nearby Weather Stations